Time;durP1;ratioP1;P1;durP2;ratioP2;P2;SDS_P1;SDS_P2;PMS_P1;PMS_P2;Temp;Humidity;BMP_temperature;BMP_pressure;BME280_temperature;BME280_humidity;BME280_pressure;Samples;Min_cycle;Max_cycle;Signal;HPM_P1;HPM_P2
2022/05/20 00:01:50;;;;;;;31.13;22.50;;;;;;;-145.19;100.00;57938.22;4970420;28;20030;-68
2022/05/20 00:04:15;;;;;;;24.53;18.47;;;;;;;-145.19;100.00;57938.22;4970250;28;20414;-68
2022/05/20 00:06:41;;;;;;;39.37;25.10;;;;;;;-145.19;100.00;57938.22;4970112;28;20101;-68
2022/05/20 00:09:06;;;;;;;64.80;22.00;;;;;;;-145.19;100.00;57938.22;4970812;28;20044;-68
2022/05/20 00:11:32;;;;;;;154.40;28.10;;;;;;;-145.19;100.00;57938.22;4970191;28;20070;-68
2022/05/20 00:13:58;;;;;;;50.40;30.70;;;;;;;-145.19;100.00;57938.22;4970738;28;20070;-68
2022/05/20 00:16:23;;;;;;;127.20;29.73;;;;;;;-145.19;100.00;57938.22;4970122;28;20027;-68
2022/05/20 00:18:49;;;;;;;112.60;29.23;;;;;;;-145.19;100.00;57938.22;4970442;28;20081;-68
2022/05/20 00:21:14;;;;;;;37.40;28.83;;;;;;;-145.19;100.00;57938.22;4970098;28;20120;-68
2022/05/20 00:23:40;;;;;;;40.47;27.43;;;;;;;-145.19;100.00;57938.22;4970612;28;20662;-68
2022/05/20 00:26:05;;;;;;;36.63;28.97;;;;;;;-145.19;100.00;57938.22;4970330;28;20138;-68
2022/05/20 00:28:31;;;;;;;44.87;27.53;;;;;;;-145.19;100.00;57938.22;4970213;28;20039;-68
2022/05/20 00:31:03;;;;;;;155.80;26.50;;;;;;;-145.19;100.00;57938.22;4970075;28;20071;-68
2022/05/20 00:33:28;;;;;;;206.53;31.47;;;;;;;-145.19;100.00;57938.22;4970286;28;20027;-68
2022/05/20 00:35:54;;;;;;;86.63;28.43;;;;;;;-145.19;100.00;57938.22;4971621;28;20039;-69
2022/05/20 00:38:21;;;;;;;170.63;27.67;;;;;;;-145.19;100.00;57938.22;4974001;28;20110;-69
2022/05/20 00:40:48;;;;;;;539.43;31.60;;;;;;;-145.19;100.00;57938.22;4974347;28;20030;-69
2022/05/20 00:43:29;;;;;;;40.00;22.23;;;;;;;-145.19;100.00;57938.22;4974025;28;20039;-69
2022/05/20 00:46:00;;;;;;;79.63;24.43;;;;;;;-145.19;100.00;57938.22;4973681;28;20043;-68
2022/05/20 00:48:27;;;;;;;57.50;27.73;;;;;;;-145.19;100.00;57938.22;4973808;28;20126;-68
2022/05/20 00:51:20;;;;;;;52.50;22.17;;;;;;;-145.19;100.00;57938.22;4974347;28;20113;-69
2022/05/20 00:54:00;;;;;;;25.93;20.60;;;;;;;-145.19;100.00;57938.22;4974254;28;20057;-69
2022/05/20 00:56:32;;;;;;;27.13;23.17;;;;;;;-145.19;100.00;57938.22;4973688;28;20031;-68
2022/05/20 00:58:58;;;;;;;24.53;20.10;;;;;;;-145.19;100.00;57938.22;4974402;28;20105;-68
2022/05/20 01:01:26;;;;;;;24.80;22.13;;;;;;;-145.19;100.00;57938.22;4973597;28;20053;-68
2022/05/20 01:03:53;;;;;;;37.40;26.47;;;;;;;-145.19;100.00;57938.22;4973828;28;20410;-68
2022/05/20 01:06:19;;;;;;;30.37;21.67;;;;;;;-145.19;100.00;57938.22;4973012;28;20065;-68
2022/05/20 01:08:44;;;;;;;19.67;16.73;;;;;;;-145.19;100.00;57938.22;4973699;28;20117;-69
2022/05/20 01:11:10;;;;;;;14.67;11.77;;;;;;;-145.19;100.00;57938.22;4973959;28;20061;-68
2022/05/20 01:13:35;;;;;;;15.03;13.43;;;;;;;-145.19;100.00;57938.22;4973477;28;20031;-68
2022/05/20 01:16:04;;;;;;;23.93;17.43;;;;;;;-145.19;100.00;57938.22;4973877;28;20050;-68
2022/05/20 01:18:35;;;;;;;32.47;18.90;;;;;;;-145.19;100.00;57938.22;4973442;28;20039;-68
2022/05/20 01:21:01;;;;;;;35.03;22.10;;;;;;;-145.19;100.00;57938.22;4973806;28;20127;-68
2022/05/20 01:23:28;;;;;;;24.27;21.23;;;;;;;-145.19;100.00;57938.22;4973329;28;20062;-68
2022/05/20 01:25:56;;;;;;;25.50;20.20;;;;;;;-145.19;100.00;57938.22;4973901;28;20109;-68
2022/05/20 01:28:23;;;;;;;77.97;22.57;;;;;;;-145.19;100.00;57938.22;4972997;28;20034;-69
2022/05/20 01:30:53;;;;;;;110.33;22.90;;;;;;;-145.19;100.00;57938.22;4973623;28;20038;-68
2022/05/20 01:33:41;;;;;;;27.27;23.40;;;;;;;-145.19;100.00;57938.22;4973254;28;20396;-68
2022/05/20 01:36:12;;;;;;;27.93;21.70;;;;;;;-145.19;100.00;57938.22;4973698;28;20121;-68
2022/05/20 01:38:38;;;;;;;36.30;19.00;;;;;;;-145.19;100.00;57938.22;4973099;28;20499;-68
2022/05/20 01:41:25;;;;;;;24.90;18.83;;;;;;;-145.19;100.00;57938.22;4967739;28;20078;-68
2022/05/20 01:44:09;;;;;;;21.97;16.43;;;;;;;-145.19;100.00;57938.22;4954163;29;20062;-68
2022/05/20 01:46:44;;;;;;;26.17;20.60;;;;;;;-145.19;100.00;57938.22;4953375;28;20042;-68
2022/05/20 01:49:41;;;;;;;33.50;24.33;;;;;;;-145.19;100.00;57938.22;4953901;29;20388;-68
2022/05/20 01:52:25;;;;;;;28.40;21.50;;;;;;;-145.19;100.00;57938.22;4951451;29;20067;-68
2022/05/20 01:54:59;;;;;;;24.50;19.87;;;;;;;-145.19;100.00;57938.22;4953913;29;20536;-69
2022/05/20 01:57:47;;;;;;;21.47;17.57;;;;;;;-145.19;100.00;57938.22;4953445;29;20447;-69
2022/05/20 02:03:14;;;;;;;28.30;19.27;;;;;;;-145.19;100.00;57938.22;5192000;22;20047;-68
2022/05/20 02:05:53;;;;;;;29.90;22.17;;;;;;;-145.19;100.00;57938.22;4988685;28;20034;-68
2022/05/20 02:08:41;;;;;;;31.00;20.97;;;;;;;-145.19;100.00;57938.22;4992194;28;20031;-67
2022/05/20 02:11:20;;;;;;;30.63;21.87;;;;;;;-145.19;100.00;57938.22;4992060;28;20358;-67
2022/05/20 02:13:52;;;;;;;45.10;29.20;;;;;;;-145.19;100.00;57938.22;4991986;28;20068;-68
2022/05/20 02:16:22;;;;;;;36.70;26.33;;;;;;;-145.19;100.00;57938.22;4992452;28;20092;-68
2022/05/20 02:19:02;;;;;;;40.43;26.83;;;;;;;-145.19;100.00;57938.22;4991978;28;20062;-67
2022/05/20 02:21:31;;;;;;;38.03;22.93;;;;;;;-145.19;100.00;57938.22;4992143;28;20407;-67
2022/05/20 02:24:01;;;;;;;29.80;19.33;;;;;;;-145.19;100.00;57938.22;4991859;28;20030;-67
2022/05/20 02:26:30;;;;;;;19.57;16.27;;;;;;;-145.19;100.00;57938.22;4991946;28;20030;-67
2022/05/20 02:29:01;;;;;;;31.90;22.47;;;;;;;-145.19;100.00;57938.22;4991604;28;20053;-68
2022/05/20 02:31:35;;;;;;;31.20;20.97;;;;;;;-145.19;100.00;57938.22;4992016;28;20486;-67
2022/05/20 02:34:01;;;;;;;28.47;14.83;;;;;;;-145.19;100.00;57938.22;4991557;28;20550;-67
2022/05/20 02:36:32;;;;;;;192.13;20.53;;;;;;;-145.19;100.00;57938.22;4991990;28;20030;-67
2022/05/20 02:38:57;;;;;;;106.70;22.67;;;;;;;-145.19;100.00;57938.22;4991731;28;20061;-68
2022/05/20 02:41:23;;;;;;;88.23;26.13;;;;;;;-145.19;100.00;57938.22;4991622;28;20069;-70
2022/05/20 02:43:48;;;;;;;226.20;30.03;;;;;;;-145.19;100.00;57938.22;4991521;28;20061;-67
2022/05/20 02:46:14;;;;;;;116.47;27.47;;;;;;;-145.19;100.00;57938.22;4991708;28;20038;-67
2022/05/20 02:48:39;;;;;;;130.47;25.43;;;;;;;-145.19;100.00;57938.22;4991150;28;20058;-67
2022/05/20 02:51:04;;;;;;;104.37;28.23;;;;;;;-145.19;100.00;57938.22;4991486;28;20049;-68
2022/05/20 02:53:30;;;;;;;47.53;30.40;;;;;;;-145.19;100.00;57938.22;4991123;28;20117;-67
2022/05/20 02:55:56;;;;;;;41.53;30.80;;;;;;;-145.19;100.00;57938.22;4991355;28;20450;-67
2022/05/20 03:04:12;;;;;;;142.77;40.60;;;;;;;-145.19;100.00;57938.22;5010610;28;20457;-68
2022/05/20 03:06:49;;;;;;;68.73;40.27;;;;;;;-145.19;100.00;57938.22;4996094;28;20038;-67
2022/05/20 03:09:20;;;;;;;90.63;40.20;;;;;;;-145.19;100.00;57938.22;5010556;28;20089;-68
2022/05/20 03:11:46;;;;;;;102.20;39.17;;;;;;;-145.19;100.00;57938.22;5010957;28;20061;-68
2022/05/20 03:14:14;;;;;;;73.60;37.10;;;;;;;-145.19;100.00;57938.22;5010548;28;20057;-67
2022/05/20 03:16:41;;;;;;;77.50;35.30;;;;;;;-145.19;100.00;57938.22;5010804;28;20026;-67
2022/05/20 03:19:07;;;;;;;311.57;40.60;;;;;;;-145.19;100.00;57938.22;5010268;28;20034;-68
2022/05/20 03:21:34;;;;;;;371.60;43.73;;;;;;;-145.19;100.00;57938.22;5010544;28;20080;-68
2022/05/20 03:24:00;;;;;;;189.70;40.50;;;;;;;-145.19;100.00;57938.22;5010573;28;20046;-68
2022/05/20 03:26:26;;;;;;;182.73;41.60;;;;;;;-145.19;100.00;57938.22;5010487;28;20108;-68
2022/05/20 03:28:52;;;;;;;198.93;40.47;;;;;;;-145.19;100.00;57938.22;5010163;28;20613;-68
2022/05/20 03:31:18;;;;;;;126.37;40.73;;;;;;;-145.19;100.00;57938.22;5010575;28;20073;-68
2022/05/20 03:33:44;;;;;;;120.60;39.90;;;;;;;-145.19;100.00;57938.22;5010220;28;20506;-67
2022/05/20 03:36:11;;;;;;;93.73;39.87;;;;;;;-145.19;100.00;57938.22;5010367;28;20048;-67
2022/05/20 03:38:36;;;;;;;118.73;37.50;;;;;;;-145.19;100.00;57938.22;5010251;28;20022;-67
2022/05/20 03:41:03;;;;;;;139.50;38.93;;;;;;;-145.19;100.00;57938.22;5010229;28;20048;-68
2022/05/20 03:43:28;;;;;;;67.80;36.87;;;;;;;-145.19;100.00;57938.22;5009955;28;20026;-67
2022/05/20 03:45:55;;;;;;;117.37;37.10;;;;;;;-145.19;100.00;57938.22;5010368;28;20037;-67
2022/05/20 03:48:21;;;;;;;213.40;39.83;;;;;;;-145.19;100.00;57938.22;5009961;28;20037;-67
2022/05/20 03:50:47;;;;;;;90.23;38.63;;;;;;;-145.19;100.00;57938.22;5010413;28;20026;-68
2022/05/20 03:53:13;;;;;;;137.77;38.27;;;;;;;-145.19;100.00;57938.22;5009656;28;20490;-68
2022/05/20 03:55:38;;;;;;;214.53;42.83;;;;;;;-145.19;100.00;57938.22;5010591;28;20037;-68
2022/05/20 03:58:04;;;;;;;161.07;41.13;;;;;;;-145.19;100.00;57938.22;4992179;28;20112;-68
2022/05/20 04:00:29;;;;;;;153.60;42.70;;;;;;;-145.19;100.00;57938.22;5010164;28;20034;-68
2022/05/20 04:02:55;;;;;;;188.10;41.33;;;;;;;-145.19;100.00;57938.22;5009333;28;20050;-67
2022/05/20 04:05:20;;;;;;;302.37;45.63;;;;;;;-145.19;100.00;57938.22;4992768;28;20406;-67
2022/05/20 04:07:46;;;;;;;242.93;46.60;;;;;;;-145.19;100.00;57938.22;5009736;28;20046;-68
2022/05/20 04:10:11;;;;;;;188.80;46.10;;;;;;;-145.19;100.00;57938.22;5010432;28;20042;-67
2022/05/20 04:12:43;;;;;;;103.13;47.60;;;;;;;-145.19;100.00;57938.22;5012121;28;20045;-68
2022/05/20 04:15:12;;;;;;;222.73;50.93;;;;;;;-145.19;100.00;57938.22;5009708;28;20049;-68
2022/05/20 04:17:37;;;;;;;144.60;48.47;;;;;;;-145.19;100.00;57938.22;4995290;28;20033;-68
2022/05/20 04:20:05;;;;;;;119.73;47.37;;;;;;;-145.19;100.00;57938.22;5011954;28;20036;-68
2022/05/20 04:22:32;;;;;;;121.37;46.50;;;;;;;-145.19;100.00;57938.22;5003201;28;20042;-68
2022/05/20 04:25:00;;;;;;;172.53;45.70;;;;;;;-145.19;100.00;57938.22;5009253;28;20101;-68
2022/05/20 04:27:27;;;;;;;123.20;43.03;;;;;;;-145.19;100.00;57938.22;5009740;28;20044;-67
2022/05/20 04:29:53;;;;;;;138.53;44.70;;;;;;;-145.19;100.00;57938.22;4992431;28;20474;-68
2022/05/20 04:32:18;;;;;;;93.23;42.27;;;;;;;-145.19;100.00;57938.22;5012354;28;20037;-68
2022/05/20 04:34:44;;;;;;;87.60;42.93;;;;;;;-145.19;100.00;57938.22;5012467;28;20113;-68
2022/05/20 04:37:10;;;;;;;67.13;41.97;;;;;;;-145.19;100.00;57938.22;5011759;28;20033;-67
2022/05/20 04:39:35;;;;;;;91.83;44.00;;;;;;;-145.19;100.00;57938.22;5012328;28;20029;-68
2022/05/20 04:47:32;;;;;;;89.97;44.60;;;;;;;-145.19;100.00;57938.22;5013194;28;20040;-68
2022/05/20 04:49:58;;;;;;;140.83;47.07;;;;;;;-145.19;100.00;57938.22;5013683;28;20429;-68
2022/05/20 04:52:24;;;;;;;143.10;46.53;;;;;;;-145.19;100.00;57938.22;5013516;28;20068;-68
2022/05/20 04:54:50;;;;;;;107.00;44.90;;;;;;;-145.19;100.00;57938.22;5012556;28;20065;-69
2022/05/20 04:57:22;;;;;;;111.03;45.30;;;;;;;-145.19;100.00;57938.22;5013222;28;20034;-68
2022/05/20 04:59:48;;;;;;;78.40;46.40;;;;;;;-145.19;100.00;57938.22;5013375;28;20040;-68
2022/05/20 05:02:13;;;;;;;87.53;44.37;;;;;;;-145.19;100.00;57938.22;5012824;28;20033;-68
2022/05/20 05:04:39;;;;;;;70.03;45.17;;;;;;;-145.19;100.00;57938.22;5012674;28;20042;-68
2022/05/20 05:07:09;;;;;;;76.83;43.87;;;;;;;-145.19;100.00;57938.22;5009246;28;20037;-67
2022/05/20 05:09:34;;;;;;;60.90;41.47;;;;;;;-145.19;100.00;57938.22;4988955;28;20041;-68
2022/05/20 05:12:00;;;;;;;53.37;39.20;;;;;;;-145.19;100.00;57938.22;5012098;28;20474;-68
2022/05/20 05:14:25;;;;;;;60.73;40.80;;;;;;;-145.19;100.00;57938.22;5012817;28;20042;-68
2022/05/20 05:16:50;;;;;;;58.37;41.00;;;;;;;-145.19;100.00;57938.22;5012614;28;20041;-68
2022/05/20 05:19:16;;;;;;;55.43;40.30;;;;;;;-145.19;100.00;57938.22;5012444;28;20038;-68
2022/05/20 05:21:41;;;;;;;58.33;41.73;;;;;;;-145.19;100.00;57938.22;5012358;28;20034;-68
2022/05/20 05:24:07;;;;;;;62.00;44.70;;;;;;;-145.19;100.00;57938.22;5011691;28;20540;-68
2022/05/20 05:26:35;;;;;;;66.40;44.97;;;;;;;-145.19;100.00;57938.22;5012833;28;20073;-68
2022/05/20 05:29:02;;;;;;;69.20;45.87;;;;;;;-145.19;100.00;57938.22;4994787;28;20117;-68
2022/05/20 05:31:27;;;;;;;66.37;46.97;;;;;;;-145.19;100.00;57938.22;5012308;28;20053;-68
2022/05/20 05:33:53;;;;;;;67.23;47.40;;;;;;;-145.19;100.00;57938.22;5012230;28;20397;-68
2022/05/20 05:36:19;;;;;;;73.57;47.73;;;;;;;-145.19;100.00;57938.22;5012315;28;20030;-68
2022/05/20 05:38:46;;;;;;;70.50;45.30;;;;;;;-145.19;100.00;57938.22;5012277;28;20037;-68
2022/05/20 05:41:12;;;;;;;71.17;45.30;;;;;;;-145.19;100.00;57938.22;5011994;28;20037;-68
2022/05/20 05:43:38;;;;;;;67.33;45.93;;;;;;;-145.19;100.00;57938.22;5011583;28;20092;-67
2022/05/20 05:46:04;;;;;;;68.30;44.60;;;;;;;-145.19;100.00;57938.22;5012413;28;20045;-68
2022/05/20 05:48:30;;;;;;;69.40;44.67;;;;;;;-145.19;100.00;57938.22;5011882;28;20041;-68
2022/05/20 05:50:55;;;;;;;76.27;46.77;;;;;;;-145.19;100.00;57938.22;5000620;28;20039;-68
2022/05/20 05:53:22;;;;;;;68.33;45.10;;;;;;;-145.19;100.00;57938.22;5005495;28;20124;-68
2022/05/20 05:55:53;;;;;;;68.10;45.33;;;;;;;-145.19;100.00;57938.22;5011355;28;20374;-68
2022/05/20 05:58:18;;;;;;;66.73;42.87;;;;;;;-145.19;100.00;57938.22;5011221;28;20505;-68
2022/05/20 06:00:44;;;;;;;68.03;44.33;;;;;;;-145.19;100.00;57938.22;5012046;28;20034;-68
2022/05/20 06:03:10;;;;;;;57.80;40.07;;;;;;;-145.19;100.00;57938.22;5009898;28;20525;-68
2022/05/20 06:05:36;;;;;;;54.83;41.23;;;;;;;-145.19;100.00;57938.22;5007008;28;20061;-68
2022/05/20 06:08:01;;;;;;;57.57;40.50;;;;;;;-145.19;100.00;57938.22;5005515;28;20398;-68
2022/05/20 06:10:27;;;;;;;56.90;39.13;;;;;;;-145.19;100.00;57938.22;5010517;28;20718;-68
2022/05/20 06:12:55;;;;;;;56.03;36.40;;;;;;;-145.19;100.00;57938.22;5010840;28;20042;-70
2022/05/20 06:15:24;;;;;;;55.07;37.03;;;;;;;-145.19;100.00;57938.22;5011980;28;20088;-68
2022/05/20 06:17:51;;;;;;;49.83;33.63;;;;;;;-145.19;100.00;57938.22;5009638;28;20034;-68
2022/05/20 06:20:17;;;;;;;37.90;26.90;;;;;;;-145.19;100.00;57938.22;5007349;28;20027;-69
2022/05/20 06:22:43;;;;;;;36.73;24.43;;;;;;;-145.19;100.00;57938.22;4993276;28;20042;-67
2022/05/20 06:25:09;;;;;;;28.67;21.33;;;;;;;-145.19;100.00;57938.22;4983950;28;20036;-68
2022/05/20 06:27:35;;;;;;;29.13;20.10;;;;;;;-145.19;100.00;57938.22;4994363;28;20508;-68
2022/05/20 06:30:03;;;;;;;26.13;18.37;;;;;;;-145.19;100.00;57938.22;5007216;28;20048;-68
2022/05/20 06:32:28;;;;;;;26.97;18.90;;;;;;;-145.19;100.00;57938.22;4997063;28;20058;-67
2022/05/20 06:40:22;;;;;;;25.20;16.07;;;;;;;-145.19;100.00;57938.22;5007015;28;20483;-68
2022/05/20 06:42:48;;;;;;;22.27;17.40;;;;;;;-145.19;100.00;57938.22;5010419;28;20128;-68
2022/05/20 06:45:15;;;;;;;21.93;15.70;;;;;;;-145.19;100.00;57938.22;5003799;28;20041;-67
2022/05/20 06:47:40;;;;;;;23.27;15.07;;;;;;;-145.19;100.00;57938.22;5009610;28;20032;-68
2022/05/20 06:50:08;;;;;;;21.87;15.50;;;;;;;-145.19;100.00;57938.22;5010206;28;20120;-67
2022/05/20 06:52:34;;;;;;;22.70;15.23;;;;;;;-145.19;100.00;57938.22;5009466;28;20029;-68
2022/05/20 06:55:00;;;;;;;22.70;13.57;;;;;;;-145.19;100.00;57938.22;4985824;28;20030;-68
2022/05/20 06:57:25;;;;;;;20.40;14.40;;;;;;;-145.19;100.00;57938.22;5010304;28;20030;-67
2022/05/20 06:59:52;;;;;;;20.47;14.33;;;;;;;-145.19;100.00;57938.22;5009438;28;20538;-67
2022/05/20 07:02:17;;;;;;;22.53;14.50;;;;;;;-145.19;100.00;57938.22;5009976;28;20083;-67
2022/05/20 07:04:43;;;;;;;17.60;11.43;;;;;;;-145.19;100.00;57938.22;5009714;28;20133;-67
2022/05/20 07:07:08;;;;;;;16.17;11.33;;;;;;;-145.19;100.00;57938.22;5008517;28;20490;-67
2022/05/20 07:09:34;;;;;;;14.03;9.37;;;;;;;-145.19;100.00;57938.22;5009485;28;20057;-68
2022/05/20 07:11:59;;;;;;;15.00;9.93;;;;;;;-145.19;100.00;57938.22;5008392;28;20053;-67
2022/05/20 07:14:25;;;;;;;16.17;9.33;;;;;;;-145.19;100.00;57938.22;5009658;28;20281;-67
2022/05/20 07:16:50;;;;;;;20.93;11.23;;;;;;;-145.19;100.00;57938.22;5010027;28;20034;-68
2022/05/20 07:19:16;;;;;;;18.33;9.93;;;;;;;-145.19;100.00;57938.22;5009284;28;20101;-67
2022/05/20 07:21:42;;;;;;;15.50;9.80;;;;;;;-145.19;100.00;57938.22;5009707;28;20041;-67
2022/05/20 07:24:08;;;;;;;11.57;8.10;;;;;;;-145.19;100.00;57938.22;5009501;28;20084;-67
2022/05/20 07:26:34;;;;;;;16.17;8.37;;;;;;;-145.19;100.00;57938.22;5009885;28;20538;-67
2022/05/20 07:29:00;;;;;;;14.87;7.67;;;;;;;-145.19;100.00;57938.22;5008929;28;20026;-67
2022/05/20 07:31:25;;;;;;;14.33;7.30;;;;;;;-145.19;100.00;57938.22;5007868;28;20482;-67
2022/05/20 07:33:52;;;;;;;12.83;8.47;;;;;;;-145.19;100.00;57938.22;5009140;28;20057;-67
2022/05/20 07:36:18;;;;;;;14.43;7.30;;;;;;;-145.19;100.00;57938.22;5005026;28;20088;-67
2022/05/20 07:38:43;;;;;;;12.27;7.53;;;;;;;-145.19;100.00;57938.22;5006073;28;20042;-67
2022/05/20 07:41:09;;;;;;;10.37;7.30;;;;;;;-145.19;100.00;57938.22;4992938;28;20048;-67
2022/05/20 07:43:35;;;;;;;12.57;7.77;;;;;;;-145.19;100.00;57938.22;5001285;28;20076;-67
2022/05/20 07:46:01;;;;;;;11.27;7.83;;;;;;;-145.19;100.00;57938.22;5009351;28;20442;-67
2022/05/20 07:48:26;;;;;;;13.47;8.17;;;;;;;-145.19;100.00;57938.22;5009702;28;20061;-67
2022/05/20 07:50:57;;;;;;;13.03;8.13;;;;;;;-145.19;100.00;57938.22;5007090;28;20062;-68
2022/05/20 07:53:33;;;;;;;12.53;7.50;;;;;;;-145.19;100.00;57938.22;5006258;28;20479;-67
2022/05/20 07:56:24;;;;;;;16.63;8.50;;;;;;;-145.19;100.00;57938.22;4990451;28;20065;-67
2022/05/20 07:58:56;;;;;;;9.47;7.43;;;;;;;-145.19;100.00;57938.22;4990301;28;20030;-67
2022/05/20 08:01:26;;;;;;;15.57;9.70;;;;;;;-145.19;100.00;57938.22;5007272;28;20489;-67
2022/05/20 08:06:43;;;;;;;13.67;9.50;;;;;;;-145.19;100.00;57938.22;5006037;28;20084;-67
2022/05/20 08:09:09;;;;;;;14.13;9.87;;;;;;;-145.19;100.00;57938.22;5004186;28;20018;-67
2022/05/20 08:11:35;;;;;;;12.00;9.30;;;;;;;-145.19;100.00;57938.22;5011110;28;20580;-67
2022/05/20 08:14:00;;;;;;;16.40;10.87;;;;;;;-145.19;100.00;57938.22;5029728;28;20038;-67
2022/05/20 08:16:26;;;;;;;11.97;9.43;;;;;;;-145.19;100.00;57938.22;5028990;28;20064;-67
2022/05/20 08:18:52;;;;;;;13.17;9.27;;;;;;;-145.19;100.00;57938.22;5009304;28;20026;-68
2022/05/20 08:21:17;;;;;;;15.83;9.33;;;;;;;-145.19;100.00;57938.22;5010121;28;20120;-67
2022/05/20 08:23:44;;;;;;;13.47;8.67;;;;;;;-145.19;100.00;57938.22;5007870;28;20081;-67
2022/05/20 08:26:09;;;;;;;15.67;8.90;;;;;;;-145.19;100.00;57938.22;5005618;28;20112;-67
2022/05/20 08:28:34;;;;;;;15.13;8.53;;;;;;;-145.19;100.00;57938.22;5010009;28;20121;-67
2022/05/20 08:31:00;;;;;;;12.57;9.97;;;;;;;-145.19;100.00;57938.22;4993141;28;20042;-68
2022/05/20 08:33:25;;;;;;;16.00;9.63;;;;;;;-145.19;100.00;57938.22;5009920;28;20034;-67
2022/05/20 08:35:51;;;;;;;11.93;9.00;;;;;;;-145.19;100.00;57938.22;5010672;28;20042;-67
2022/05/20 08:38:17;;;;;;;17.83;8.67;;;;;;;-145.19;100.00;57938.22;5010333;28;20084;-67
2022/05/20 08:40:45;;;;;;;13.17;9.07;;;;;;;-145.19;100.00;57938.22;5010565;28;20022;-67
2022/05/20 08:43:12;;;;;;;15.70;10.03;;;;;;;-145.19;100.00;57938.22;5009607;28;20061;-67
2022/05/20 08:45:39;;;;;;;15.90;9.43;;;;;;;-145.19;100.00;57938.22;5010651;28;20144;-67
2022/05/20 08:48:07;;;;;;;12.17;9.10;;;;;;;-145.19;100.00;57938.22;5009691;28;20022;-67
2022/05/20 08:50:56;;;;;;;12.07;9.07;;;;;;;-145.19;100.00;57938.22;5010576;28;20087;-67
2022/05/20 08:53:38;;;;;;;12.57;8.80;;;;;;;-145.19;100.00;57938.22;5009558;28;20042;-67
2022/05/20 08:56:09;;;;;;;14.83;8.90;;;;;;;-145.19;100.00;57938.22;5009996;28;20065;-67
2022/05/20 08:58:45;;;;;;;14.57;8.47;;;;;;;-145.19;100.00;57938.22;5013979;28;20034;-67
2022/05/20 09:01:10;;;;;;;12.32;7.80;;;;;;;-145.19;100.00;57938.22;5013642;28;20049;-67
2022/05/20 09:03:35;;;;;;;10.97;8.20;;;;;;;-145.19;100.00;57938.22;5013355;28;20581;-67
2022/05/20 09:06:07;;;;;;;9.73;7.43;;;;;;;-145.19;100.00;57938.22;4996073;28;20045;-67
2022/05/20 09:08:34;;;;;;;14.83;8.27;;;;;;;-145.19;100.00;57938.22;5013307;28;20042;-67
2022/05/20 09:11:02;;;;;;;18.20;9.20;;;;;;;-145.19;100.00;57938.22;5013605;28;20038;-67
2022/05/20 09:16:23;;;;;;;10.53;7.50;;;;;;;-145.19;100.00;57938.22;5013414;28;20041;-67
2022/05/20 09:19:04;;;;;;;12.73;8.37;;;;;;;-145.19;100.00;57938.22;5013252;28;20717;-67
2022/05/20 09:21:33;;;;;;;13.80;9.30;;;;;;;-145.19;100.00;57938.22;5013287;28;20065;-67
2022/05/20 09:24:04;;;;;;;13.70;9.57;;;;;;;-145.19;100.00;57938.22;5013093;28;20033;-67
2022/05/20 09:26:36;;;;;;;16.60;9.67;;;;;;;-145.19;100.00;57938.22;5013526;28;20034;-67
2022/05/20 09:29:14;;;;;;;12.90;9.33;;;;;;;-145.19;100.00;57938.22;5012977;28;20030;-67
2022/05/20 09:31:49;;;;;;;13.63;9.90;;;;;;;-145.19;100.00;57938.22;5013594;28;20030;-67
2022/05/20 09:34:30;;;;;;;15.40;10.00;;;;;;;-145.19;100.00;57938.22;4995107;28;20389;-67
2022/05/20 09:36:58;;;;;;;13.90;10.87;;;;;;;-145.19;100.00;57938.22;5013432;28;20034;-67
2022/05/20 09:39:31;;;;;;;15.97;12.33;;;;;;;-145.19;100.00;57938.22;5012779;28;20030;-67
2022/05/20 09:42:00;;;;;;;18.37;12.40;;;;;;;-145.19;100.00;57938.22;5012726;28;20029;-67
2022/05/20 09:44:36;;;;;;;17.63;11.70;;;;;;;-145.19;100.00;57938.22;5013101;28;20033;-67
2022/05/20 09:47:30;;;;;;;18.50;12.43;;;;;;;-145.19;100.00;57938.22;5012465;28;20041;-67
2022/05/20 09:50:02;;;;;;;18.37;12.80;;;;;;;-145.19;100.00;57938.22;5004955;28;20057;-67
2022/05/20 09:52:50;;;;;;;22.27;12.83;;;;;;;-145.19;100.00;57938.22;5012812;28;20030;-67
2022/05/20 09:55:29;;;;;;;16.33;11.67;;;;;;;-145.19;100.00;57938.22;5012354;28;20034;-67
2022/05/20 09:58:08;;;;;;;22.90;12.57;;;;;;;-145.19;100.00;57938.22;5012492;28;20029;-67
2022/05/20 10:00:35;;;;;;;17.87;13.27;;;;;;;-145.19;100.00;57938.22;5012017;28;20034;-67
2022/05/20 10:03:31;;;;;;;16.47;11.73;;;;;;;-145.19;100.00;57938.22;5011748;28;20514;-67
2022/05/20 10:06:15;;;;;;;13.48;10.77;;;;;;;-145.19;100.00;57938.22;5012748;28;20059;-67
2022/05/20 10:08:47;;;;;;;16.17;10.77;;;;;;;-145.19;100.00;57938.22;5011774;28;20071;-67
2022/05/20 10:11:27;;;;;;;15.20;10.03;;;;;;;-145.19;100.00;57938.22;5012287;28;20052;-67
2022/05/20 10:13:58;;;;;;;13.13;9.50;;;;;;;-145.19;100.00;57938.22;5009348;28;20026;-67
2022/05/20 10:16:28;;;;;;;16.60;9.93;;;;;;;-145.19;100.00;57938.22;5010735;28;20041;-67
2022/05/20 10:19:00;;;;;;;15.13;8.73;;;;;;;-145.19;100.00;57938.22;5011899;28;20084;-67
2022/05/20 10:21:32;;;;;;;12.53;8.00;;;;;;;-145.19;100.00;57938.22;4994403;28;20030;-67
2022/05/20 10:24:27;;;;;;;15.07;8.20;;;;;;;-145.19;100.00;57938.22;5012052;28;20030;-67
2022/05/20 10:27:15;;;;;;;13.18;9.20;;;;;;;-145.19;100.00;57938.22;5012358;28;20037;-67
2022/05/20 10:32:49;;;;;;;13.03;8.60;;;;;;;-145.19;100.00;57938.22;4971351;28;20046;-66
2022/05/20 10:35:18;;;;;;;10.33;7.80;;;;;;;-145.19;100.00;57938.22;5011741;28;20038;-67
2022/05/20 10:37:55;;;;;;;14.40;8.27;;;;;;;-145.19;100.00;57938.22;5011393;28;20505;-67
2022/05/20 10:40:51;;;;;;;14.10;8.00;;;;;;;-145.19;100.00;57938.22;5011358;28;20028;-67
2022/05/20 10:43:26;;;;;;;11.85;8.45;;;;;;;-145.19;100.00;57938.22;5009650;28;20030;-68
2022/05/20 10:48:54;;;;;;;14.77;7.73;;;;;;;-145.19;100.00;57938.22;5011541;28;20167;-67
2022/05/20 10:51:28;;;;;;;12.57;7.70;;;;;;;-145.19;100.00;57938.22;5011148;28;20079;-67
2022/05/20 10:54:22;;;;;;;15.20;8.80;;;;;;;-145.19;100.00;57938.22;5010518;28;20049;-67
2022/05/20 10:57:27;;;;;;;11.50;7.47;;;;;;;-145.19;100.00;57938.22;5011557;28;20490;-68
2022/05/20 11:00:05;;;;;;;16.07;8.17;;;;;;;-145.19;100.00;57938.22;5010549;28;20089;-67
2022/05/20 11:02:46;;;;;;;15.60;8.80;;;;;;;-145.19;100.00;57938.22;5010807;28;20141;-67
2022/05/20 11:05:11;;;;;;;13.63;9.23;;;;;;;-145.19;100.00;57938.22;4993471;28;20044;-67
2022/05/20 11:07:54;;;;;;;14.73;9.43;;;;;;;-145.19;100.00;57938.22;5011348;28;20022;-67
2022/05/20 11:10:42;;;;;;;14.33;9.17;;;;;;;-145.19;100.00;57938.22;5011208;28;20051;-67
2022/05/20 11:13:26;;;;;;;17.37;9.33;;;;;;;-145.19;100.00;57938.22;5010015;28;20029;-67
2022/05/20 11:16:00;;;;;;;16.33;10.00;;;;;;;-145.19;100.00;57938.22;5011090;28;20108;-68
2022/05/20 11:18:38;;;;;;;13.90;9.00;;;;;;;-145.19;100.00;57938.22;5010707;28;20037;-67
2022/05/20 11:21:30;;;;;;;14.90;9.93;;;;;;;-145.19;100.00;57938.22;5010835;28;20029;-67
2022/05/20 11:24:13;;;;;;;13.73;8.97;;;;;;;-145.19;100.00;57938.22;5009877;28;20025;-67
2022/05/20 11:27:00;;;;;;;13.03;9.37;;;;;;;-145.19;100.00;57938.22;5008762;28;20037;-67
2022/05/20 11:29:33;;;;;;;12.67;9.23;;;;;;;-145.19;100.00;57938.22;5008176;28;20040;-67
2022/05/20 11:32:10;;;;;;;13.57;8.50;;;;;;;-145.19;100.00;57938.22;5009438;28;20068;-68
2022/05/20 11:35:06;;;;;;;11.33;8.07;;;;;;;-145.19;100.00;57938.22;5008159;28;20470;-68
2022/05/20 11:37:45;;;;;;;12.98;8.95;;;;;;;-145.19;100.00;57938.22;5008250;28;20135;-67
2022/05/20 11:40:47;;;;;;;17.30;9.23;;;;;;;-145.19;100.00;57938.22;5007852;28;20018;-67